Time;durP1;ratioP1;P1;durP2;ratioP2;P2;SDS_P1;SDS_P2;PMS_P1;PMS_P2;Temp;Humidity;BMP_temperature;BMP_pressure;BME280_temperature;BME280_humidity;BME280_pressure;Samples;Min_cycle;Max_cycle;Signal;HPM_P1;HPM_P2
2021/04/18 00:00:51;;;;;;;3.90;3.60;;;;;;;1.45;96.01;93193.72;2084037;28;20032;-85
2021/04/18 00:01:52;;;;;;;4.45;3.90;;;;;;;1.39;96.25;93187.25;2076238;28;20474;-86
2021/04/18 00:02:53;;;;;;;3.65;3.38;;;;;;;1.36;96.04;93190.59;2083597;28;20025;-85
2021/04/18 00:03:55;;;;;;;4.40;4.00;;;;;;;1.41;95.95;93192.91;2083088;28;20029;-85
2021/04/18 00:04:57;;;;;;;3.70;3.42;;;;;;;1.31;96.05;93196.16;2091613;28;20033;-85
2021/04/18 00:05:57;;;;;;;4.22;3.83;;;;;;;1.35;95.90;93186.44;2082862;28;20650;-85
2021/04/18 00:06:59;;;;;;;4.03;3.72;;;;;;;1.33;96.51;93187.91;2084269;28;20103;-85
2021/04/18 00:08:02;;;;;;;4.60;4.30;;;;;;;1.37;96.29;93186.09;2089103;28;20448;-86
2021/04/18 00:09:11;;;;;;;4.20;3.90;;;;;;;1.22;96.62;93182.47;2085514;28;20025;-85
2021/04/18 00:10:12;;;;;;;4.13;3.78;;;;;;;1.22;96.74;93185.13;2077853;28;20028;-85
2021/04/18 00:11:13;;;;;;;4.22;3.92;;;;;;;1.22;96.62;93185.13;2077004;28;20025;-85
2021/04/18 00:12:14;;;;;;;4.13;3.83;;;;;;;1.16;97.07;93186.53;2091849;28;20119;-85
2021/04/18 00:13:16;;;;;;;4.15;3.90;;;;;;;1.22;96.92;93179.84;2083524;28;20025;-85
2021/04/18 00:14:17;;;;;;;4.10;3.72;;;;;;;1.24;96.89;93178.38;2083132;28;20029;-85
2021/04/18 00:15:18;;;;;;;4.25;3.90;;;;;;;1.23;97.12;93174.25;2086391;28;20462;-84
2021/04/18 00:16:18;;;;;;;4.72;4.43;;;;;;;1.27;97.38;93166.38;2082709;28;20055;-85
2021/04/18 00:17:20;;;;;;;4.30;4.00;;;;;;;1.36;97.46;93174.00;2084182;28;20529;-85
2021/04/18 00:18:20;;;;;;;4.00;3.80;;;;;;;1.34;97.86;93174.38;2087574;28;20048;-85
2021/04/18 00:19:20;;;;;;;4.47;4.18;;;;;;;1.29;97.44;93174.69;2082311;28;20707;-85
2021/04/18 00:20:22;;;;;;;4.15;3.85;;;;;;;1.26;97.97;93175.38;2083159;28;20045;-85
2021/04/18 00:21:22;;;;;;;4.50;4.20;;;;;;;1.26;98.04;93173.50;2083294;28;20057;-85
2021/04/18 00:22:23;;;;;;;4.18;3.95;;;;;;;1.28;97.57;93173.19;2087608;28;20287;-85
2021/04/18 00:23:23;;;;;;;4.07;3.78;;;;;;;1.35;97.44;93169.88;2086787;28;20047;-85
2021/04/18 00:24:24;;;;;;;4.38;4.07;;;;;;;1.34;97.19;93168.34;2082265;28;20021;-85
2021/04/18 00:25:25;;;;;;;4.32;4.03;;;;;;;1.38;97.21;93172.56;2090254;28;20029;-85
2021/04/18 00:26:26;;;;;;;4.30;4.00;;;;;;;1.40;96.87;93177.47;2097876;28;20032;-85
2021/04/18 00:27:26;;;;;;;4.60;4.30;;;;;;;1.35;96.95;93178.53;2089713;28;20053;-85
2021/04/18 00:28:26;;;;;;;4.40;4.10;;;;;;;1.32;96.92;93170.56;2087003;28;20053;-85
2021/04/18 00:29:27;;;;;;;4.70;4.30;;;;;;;1.36;97.10;93172.16;2098890;28;20090;-85
2021/04/18 00:30:27;;;;;;;4.53;4.22;;;;;;;1.33;96.88;93169.47;2099268;28;20096;-85
2021/04/18 00:31:28;;;;;;;4.72;4.32;;;;;;;1.27;96.78;93171.63;2081511;28;20052;-85
2021/04/18 00:32:29;;;;;;;4.50;4.20;;;;;;;1.32;96.94;93166.09;2089217;28;20078;-85
2021/04/18 00:33:30;;;;;;;4.28;3.97;;;;;;;1.31;96.42;93167.19;2099443;28;20024;-85
2021/04/18 00:34:31;;;;;;;3.90;3.70;;;;;;;1.30;96.37;93165.66;2098311;28;20025;-85
2021/04/18 00:35:32;;;;;;;4.07;3.72;;;;;;;1.14;96.53;93162.44;2090599;28;20484;-85
2021/04/18 00:36:33;;;;;;;4.30;4.00;;;;;;;1.18;96.93;93165.88;2091548;28;20075;-86
2021/04/18 00:37:34;;;;;;;4.57;4.18;;;;;;;1.34;96.64;93165.72;2090767;28;20028;-85
2021/04/18 00:38:35;;;;;;;4.20;3.90;;;;;;;1.44;96.32;93165.09;2090034;28;20104;-85
2021/04/18 00:39:36;;;;;;;4.22;3.90;;;;;;;1.46;96.09;93161.00;2093719;28;20111;-85
2021/04/18 00:40:39;;;;;;;4.05;3.75;;;;;;;1.49;96.40;93162.94;2096409;28;20040;-85
2021/04/18 00:41:40;;;;;;;4.38;4.07;;;;;;;1.46;95.27;93161.00;2084337;28;20734;-85
2021/04/18 00:42:41;;;;;;;4.50;4.10;;;;;;;1.42;96.19;93168.09;2090631;28;20025;-85
2021/04/18 00:43:43;;;;;;;4.35;4.05;;;;;;;1.46;96.19;93152.34;2089467;28;20025;-85
2021/04/18 00:44:44;;;;;;;4.90;4.60;;;;;;;1.38;96.32;93164.66;2082304;28;20084;-85
2021/04/18 00:45:45;;;;;;;4.13;3.83;;;;;;;1.32;96.11;93157.41;2090392;28;20067;-85
2021/04/18 00:46:46;;;;;;;4.20;3.90;;;;;;;1.33;95.72;93157.06;2090372;28;20452;-85
2021/04/18 00:47:52;;;;;;;4.93;3.95;;;;;;;1.37;95.84;93154.50;2091108;28;20037;-85
2021/04/18 00:48:53;;;;;;;4.38;3.97;;;;;;;1.32;95.85;93154.78;2084332;28;20714;-85
2021/04/18 00:49:54;;;;;;;4.18;3.78;;;;;;;1.30;96.18;93155.13;2082402;28;20084;-84
2021/04/18 00:50:55;;;;;;;4.35;3.90;;;;;;;1.22;96.41;93153.53;2091630;28;20036;-85
2021/04/18 00:51:55;;;;;;;4.30;4.00;;;;;;;1.27;95.87;93147.94;2090019;28;20107;-85
2021/04/18 00:52:57;;;;;;;4.03;3.72;;;;;;;1.35;95.92;93152.19;2098299;28;20574;-85
2021/04/18 00:53:58;;;;;;;4.10;3.80;;;;;;;1.20;95.66;93158.41;2083135;28;20079;-85
2021/04/18 00:54:58;;;;;;;3.90;3.70;;;;;;;1.21;95.46;93152.75;2091296;28;20727;-84
2021/04/18 00:55:58;;;;;;;3.80;3.50;;;;;;;1.20;95.84;93151.25;2091563;28;20033;-85
2021/04/18 00:57:00;;;;;;;3.78;3.47;;;;;;;1.11;96.00;93145.47;2083209;28;20037;-85
2021/04/18 00:58:02;;;;;;;3.80;3.60;;;;;;;1.13;95.93;93150.38;2084109;28;20120;-85
2021/04/18 00:59:03;;;;;;;3.97;3.60;;;;;;;1.20;96.21;93153.13;2084019;28;20034;-84
2021/04/18 01:00:06;;;;;;;4.00;3.70;;;;;;;1.19;96.69;93155.00;2083392;28;20075;-84
2021/04/18 01:01:08;;;;;;;4.30;3.90;;;;;;;1.23;96.50;93149.78;2091323;28;20032;-84
2021/04/18 01:02:12;;;;;;;3.63;3.33;;;;;;;1.22;96.50;93151.63;2091033;28;20080;-84
2021/04/18 01:03:13;;;;;;;4.68;4.25;;;;;;;1.19;96.34;93146.34;2091437;28;20036;-85
2021/04/18 01:04:16;;;;;;;4.25;3.92;;;;;;;1.26;96.82;93146.44;2090037;28;20048;-85
2021/04/18 01:05:18;;;;;;;3.88;3.60;;;;;;;1.32;96.53;93141.59;2091119;28;20029;-84
2021/04/18 01:06:19;;;;;;;4.30;3.88;;;;;;;1.25;96.83;93144.91;2090266;28;20028;-85
2021/04/18 01:07:21;;;;;;;3.70;3.50;;;;;;;1.33;96.94;93140.50;2081628;28;20025;-84
2021/04/18 01:08:21;;;;;;;3.60;3.40;;;;;;;1.32;97.15;93137.13;2081658;28;20029;-85
2021/04/18 01:09:22;;;;;;;4.55;4.25;;;;;;;1.17;97.64;93144.06;2089372;28;20070;-85
2021/04/18 01:10:23;;;;;;;4.90;4.50;;;;;;;1.19;97.45;93143.72;2089402;28;20649;-85
2021/04/18 01:11:23;;;;;;;5.55;5.07;;;;;;;1.18;97.32;93140.31;2081298;28;20029;-85
2021/04/18 01:12:25;;;;;;;5.20;4.70;;;;;;;1.15;97.76;93137.66;2089375;28;20048;-85
2021/04/18 01:13:25;;;;;;;5.47;5.07;;;;;;;1.14;98.55;93142.16;2089680;28;20037;-85
2021/04/18 01:14:26;;;;;;;4.50;4.20;;;;;;;1.20;97.87;93138.09;2089532;28;20029;-85
2021/04/18 01:15:26;;;;;;;4.43;4.03;;;;;;;1.26;97.66;93133.25;2081200;28;20120;-85
2021/04/18 01:16:27;;;;;;;4.65;4.25;;;;;;;1.24;97.95;93138.13;2081296;28;20029;-85
2021/04/18 01:17:27;;;;;;;4.15;3.85;;;;;;;1.20;97.39;93137.34;2081221;28;20029;-85
2021/04/18 01:18:28;;;;;;;4.30;3.90;;;;;;;1.28;97.16;93132.94;2089650;28;20037;-85
2021/04/18 01:19:29;;;;;;;4.03;3.80;;;;;;;1.25;97.21;93131.75;2097712;28;20028;-85
2021/04/18 01:20:29;;;;;;;4.13;3.83;;;;;;;1.27;97.26;93126.88;2089285;28;20035;-85
2021/04/18 01:21:30;;;;;;;4.65;4.25;;;;;;;1.28;97.33;93140.81;2089453;28;20620;-85
2021/04/18 01:22:30;;;;;;;5.00;4.60;;;;;;;1.14;97.09;93130.84;2081128;28;20033;-85
2021/04/18 01:23:30;;;;;;;4.28;3.97;;;;;;;1.19;96.81;93128.69;2094771;28;20040;-85
2021/04/18 01:24:31;;;;;;;4.32;4.03;;;;;;;1.14;97.21;93131.63;2097432;28;20032;-85
2021/04/18 01:25:31;;;;;;;4.00;3.67;;;;;;;1.22;96.77;93127.19;2089470;28;20029;-85
2021/04/18 01:26:34;;;;;;;4.38;4.00;;;;;;;1.21;96.90;93126.44;2097724;28;20056;-85
2021/04/18 01:27:37;;;;;;;4.45;3.90;;;;;;;1.25;97.00;93124.63;2097522;28;20082;-85
2021/04/18 01:28:37;;;;;;;4.18;3.88;;;;;;;1.26;97.08;93122.75;2089962;28;20024;-85
2021/04/18 01:29:38;;;;;;;4.20;3.90;;;;;;;1.25;97.19;93118.59;2097207;28;20029;-85
2021/04/18 01:30:38;;;;;;;4.03;3.72;;;;;;;1.25;96.91;93129.13;2088070;28;20120;-85
2021/04/18 01:31:39;;;;;;;4.32;4.03;;;;;;;1.22;97.20;93122.69;2097604;28;20032;-85
2021/04/18 01:32:44;;;;;;;4.70;4.30;;;;;;;1.25;97.33;93126.50;2089208;28;20425;-85
2021/04/18 01:33:45;;;;;;;4.18;3.88;;;;;;;1.21;97.98;93118.53;2082122;28;20148;-85
2021/04/18 01:34:47;;;;;;;4.50;4.10;;;;;;;1.25;98.05;93121.22;2089220;28;20056;-85
2021/04/18 01:35:48;;;;;;;3.90;3.60;;;;;;;1.19;98.07;93117.41;2081111;28;20025;-84
2021/04/18 01:36:48;;;;;;;4.35;4.00;;;;;;;1.22;97.89;93121.94;2081147;28;20037;-84
2021/04/18 01:37:49;;;;;;;4.25;3.95;;;;;;;1.32;97.60;93116.06;2081032;28;20433;-84
2021/04/18 01:38:51;;;;;;;4.28;3.97;;;;;;;1.30;97.47;93117.53;2080971;28;20090;-85
2021/04/18 01:39:52;;;;;;;4.35;4.05;;;;;;;1.30;97.08;93118.28;2089645;28;20028;-84
2021/04/18 01:40:53;;;;;;;4.05;3.75;;;;;;;1.44;97.36;93117.69;2089048;28;20028;-85
2021/04/18 01:41:53;;;;;;;4.18;3.88;;;;;;;1.36;96.98;93116.88;2080978;28;20059;-85
2021/04/18 01:42:54;;;;;;;3.75;3.55;;;;;;;1.34;96.63;93121.72;2089326;28;20037;-85
2021/04/18 01:43:54;;;;;;;4.13;3.83;;;;;;;1.22;97.03;93116.66;2097666;28;20411;-84
2021/04/18 01:44:54;;;;;;;4.55;4.25;;;;;;;1.15;97.06;93111.31;2097574;28;20075;-84
2021/04/18 01:45:55;;;;;;;5.25;4.85;;;;;;;1.07;97.92;93122.88;2081380;28;20030;-85
2021/04/18 01:46:55;;;;;;;4.95;4.47;;;;;;;1.06;98.46;93121.34;2073822;28;20501;-85
2021/04/18 01:47:56;;;;;;;4.28;3.97;;;;;;;1.15;98.14;93117.34;2089148;28;20513;-85
2021/04/18 01:48:57;;;;;;;4.43;4.13;;;;;;;1.15;98.43;93111.31;2081094;28;20029;-85
2021/04/18 01:49:57;;;;;;;4.53;4.15;;;;;;;1.16;98.21;93118.84;2089312;28;20094;-85
2021/04/18 01:51:06;;;;;;;4.43;4.13;;;;;;;1.31;97.78;93119.03;2097590;28;20032;-85
2021/04/18 01:52:07;;;;;;;4.20;3.90;;;;;;;1.19;97.04;93127.94;2087481;28;20025;-85
2021/04/18 01:53:08;;;;;;;4.68;4.28;;;;;;;1.15;97.86;93121.84;2097357;28;20025;-85
2021/04/18 01:54:09;;;;;;;4.40;4.00;;;;;;;1.23;98.43;93120.84;2097500;28;20021;-85
2021/04/18 01:55:11;;;;;;;4.35;3.95;;;;;;;1.28;97.29;93117.13;2089184;28;20418;-85
2021/04/18 01:56:11;;;;;;;5.13;4.60;;;;;;;1.25;97.99;93116.72;2097187;28;20074;-84
2021/04/18 01:57:11;;;;;;;4.50;4.13;;;;;;;1.29;97.71;93113.38;2089111;28;20505;-85
2021/04/18 01:58:12;;;;;;;4.53;4.13;;;;;;;1.30;97.31;93120.91;2081137;28;20079;-86
2021/04/18 01:59:12;;;;;;;4.55;4.25;;;;;;;1.40;97.20;93120.28;2089031;28;20075;-86
2021/04/18 02:00:13;;;;;;;4.28;3.83;;;;;;;1.28;97.36;93117.13;2095135;28;20029;-86
2021/04/18 02:01:14;;;;;;;4.10;3.80;;;;;;;1.32;96.60;93113.44;2098763;28;20020;-86
2021/04/18 02:02:15;;;;;;;4.43;4.03;;;;;;;1.34;96.64;93120.97;2082105;28;20043;-85
2021/04/18 02:04:38;;;;;;;;;;;;;;;1.32;95.76;93115.28;2148455;27;20117;-85
2021/04/18 02:05:39;;;;;;;3.83;3.40;;;;;;;1.22;96.15;93119.28;2130296;27;19911;-84
2021/04/18 02:06:39;;;;;;;3.83;3.53;;;;;;;1.16;96.65;93118.09;2121451;28;20464;-84
2021/04/18 02:07:41;;;;;;;3.85;3.55;;;;;;;1.26;96.54;93117.47;2114638;28;20019;-86
2021/04/18 02:08:41;;;;;;;4.18;3.70;;;;;;;1.11;97.03;93121.78;2121633;27;20077;-86
2021/04/18 02:09:42;;;;;;;3.90;3.70;;;;;;;1.15;96.61;93127.13;2112999;28;20023;-86
2021/04/18 02:10:42;;;;;;;3.70;3.47;;;;;;;1.04;96.80;93116.41;2104620;28;20059;-86
2021/04/18 02:11:44;;;;;;;3.80;3.47;;;;;;;1.03;97.82;93124.69;2104714;28;20059;-87
2021/04/18 02:12:46;;;;;;;4.05;3.75;;;;;;;1.04;98.30;93118.31;2113406;28;20028;-86
2021/04/18 02:13:46;;;;;;;4.10;3.67;;;;;;;1.09;97.94;93113.47;2113455;27;20032;-87
2021/04/18 02:14:47;;;;;;;3.80;3.42;;;;;;;1.03;97.24;93122.81;2113169;28;20067;-87
2021/04/18 02:15:48;;;;;;;3.95;3.65;;;;;;;1.04;97.78;93121.69;2113066;28;20492;-85
2021/04/18 02:16:48;;;;;;;3.60;3.30;;;;;;;0.98;97.48;93117.84;2104620;28;20035;-85
2021/04/18 02:17:49;;;;;;;3.92;3.50;;;;;;;0.96;97.32;93120.81;2096184;28;20511;-85
2021/04/18 02:18:49;;;;;;;4.10;3.80;;;;;;;0.98;96.89;93120.47;2112855;28;20047;-86
2021/04/18 02:19:49;;;;;;;3.78;3.53;;;;;;;0.99;96.99;93117.50;2112921;28;20103;-87
2021/04/18 02:20:50;;;;;;;3.85;3.58;;;;;;;0.95;97.32;93115.91;2104574;28;20035;-87
2021/04/18 02:21:50;;;;;;;3.60;3.40;;;;;;;1.00;97.34;93111.09;2095873;28;20620;-87
2021/04/18 02:22:51;;;;;;;4.13;3.83;;;;;;;0.96;97.39;93115.56;2112796;28;20028;-85
2021/04/18 02:23:52;;;;;;;3.55;3.35;;;;;;;0.98;96.52;93113.34;2113010;27;20027;-85
2021/04/18 02:24:52;;;;;;;3.28;3.08;;;;;;;1.07;96.26;93117.59;2121266;28;20126;-85
2021/04/18 02:25:53;;;;;;;3.38;3.17;;;;;;;1.04;96.75;93110.41;2130203;27;20478;-85
2021/04/18 02:26:53;;;;;;;3.83;3.63;;;;;;;0.89;96.77;93117.34;2112892;28;20453;-85
2021/04/18 02:27:53;;;;;;;3.50;3.30;;;;;;;0.96;96.47;93110.28;2116405;28;20028;-87
2021/04/18 02:28:54;;;;;;;4.00;3.80;;;;;;;0.97;96.48;93117.09;2113743;27;20031;-85
2021/04/18 02:29:55;;;;;;;4.40;4.00;;;;;;;0.93;96.66;93128.69;2120045;28;20027;-85
2021/04/18 02:30:55;;;;;;;3.92;3.63;;;;;;;0.90;96.94;93111.72;2108432;28;20016;-85
2021/04/18 02:31:56;;;;;;;4.20;3.90;;;;;;;0.86;96.55;93123.31;2104493;28;20063;-84
2021/04/18 02:32:56;;;;;;;3.83;3.53;;;;;;;0.83;96.68;93114.25;2104475;28;20028;-87
2021/04/18 02:33:57;;;;;;;4.20;3.80;;;;;;;0.79;96.20;93117.94;2112662;28;20019;-86
2021/04/18 02:34:58;;;;;;;4.13;3.83;;;;;;;0.75;96.58;93112.63;2112894;28;20034;-86
2021/04/18 02:35:58;;;;;;;3.70;3.42;;;;;;;0.78;96.98;93105.91;2104676;28;20090;-85
2021/04/18 02:36:58;;;;;;;4.15;3.85;;;;;;;0.70;97.37;93110.28;2118224;28;20031;-85
2021/04/18 02:37:59;;;;;;;4.20;3.90;;;;;;;0.73;97.03;93112.97;2121584;28;20038;-86
2021/04/18 02:39:00;;;;;;;3.90;3.60;;;;;;;0.66;97.31;93112.09;2121173;27;20030;-86
2021/04/18 02:40:00;;;;;;;4.38;3.95;;;;;;;0.83;97.04;93116.13;2112828;28;20024;-87
2021/04/18 02:41:01;;;;;;;4.15;3.85;;;;;;;0.85;96.87;93114.66;2121546;28;20027;-87
2021/04/18 02:42:01;;;;;;;4.28;3.97;;;;;;;0.82;97.02;93107.47;2129677;27;20038;-86
2021/04/18 02:43:02;;;;;;;4.10;3.80;;;;;;;0.83;96.79;93113.47;2129777;27;20539;-87
2021/04/18 02:44:03;;;;;;;4.28;3.97;;;;;;;0.83;97.13;93116.13;2112722;28;20026;-87
2021/04/18 02:45:04;;;;;;;4.28;3.97;;;;;;;0.78;97.19;93114.53;2113849;28;20024;-86
2021/04/18 02:46:05;;;;;;;4.53;4.22;;;;;;;0.85;97.74;93116.53;2108249;27;20055;-87
2021/04/18 02:47:06;;;;;;;4.43;4.10;;;;;;;0.93;97.98;93113.66;2122510;28;20059;-86
2021/04/18 02:48:11;;;;;;;4.85;4.45;;;;;;;0.86;96.66;93115.41;2126054;27;20026;-86
2021/04/18 02:49:12;;;;;;;4.22;3.92;;;;;;;0.84;97.18;93117.66;2123327;27;20027;-87
2021/04/18 02:50:19;;;;;;;4.28;3.88;;;;;;;0.89;96.86;93119.97;2116385;27;20049;-87
2021/04/18 02:51:20;;;;;;;4.00;3.70;;;;;;;0.82;96.58;93117.22;2118876;27;20034;-87
2021/04/18 02:52:26;;;;;;;4.00;3.55;;;;;;;0.65;96.66;93118.47;2116305;27;20368;-86
2021/04/18 02:53:50;;;;;;;4.05;3.75;;;;;;;0.76;97.12;93116.78;2116398;27;20043;-86
2021/04/18 02:54:56;;;;;;;3.65;3.45;;;;;;;0.79;97.06;93118.72;2113920;27;20044;-86
2021/04/18 02:55:57;;;;;;;3.83;3.53;;;;;;;0.74;97.04;93121.63;2101201;28;20380;-85
2021/04/18 02:57:01;;;;;;;4.10;3.80;;;;;;;0.76;97.08;93119.41;2098088;28;20044;-86
2021/04/18 02:58:06;;;;;;;4.55;4.25;;;;;;;0.75;97.72;93115.28;2111125;28;20031;-85
2021/04/18 02:59:06;;;;;;;3.95;3.65;;;;;;;0.68;96.73;93113.28;2116557;28;20047;-86
2021/04/18 03:00:07;;;;;;;4.40;4.10;;;;;;;0.63;97.06;93115.47;2114425;28;20047;-87
2021/04/18 03:01:08;;;;;;;4.30;3.97;;;;;;;0.54;97.82;93118.31;2121047;27;20110;-87
2021/04/18 03:02:10;;;;;;;4.43;4.05;;;;;;;0.60;97.45;93116.91;2111574;28;20023;-87
2021/04/18 03:03:11;;;;;;;4.30;4.00;;;;;;;0.63;97.63;93120.72;2099336;28;20075;-87
2021/04/18 03:04:11;;;;;;;4.45;4.15;;;;;;;0.69;97.82;93109.53;2108987;28;20044;-87
2021/04/18 03:05:15;;;;;;;4.38;4.07;;;;;;;0.61;97.66;93105.28;2107481;28;20032;-84
2021/04/18 03:06:16;;;;;;;4.20;3.90;;;;;;;0.56;97.66;93102.94;2107132;28;20039;-85
2021/04/18 03:07:17;;;;;;;4.05;3.78;;;;;;;0.67;97.67;93109.13;2110580;28;20094;-84
2021/04/18 03:08:17;;;;;;;4.72;4.32;;;;;;;0.55;97.74;93101.44;2111474;28;20047;-86
2021/04/18 03:09:19;;;;;;;4.40;4.05;;;;;;;0.55;97.51;93103.31;2105539;28;20028;-87
2021/04/18 03:10:20;;;;;;;4.32;4.03;;;;;;;0.52;97.64;93106.63;2113485;28;20024;-85
2021/04/18 03:11:21;;;;;;;4.38;4.07;;;;;;;0.58;97.35;93106.00;2113101;27;20045;-86
2021/04/18 03:12:22;;;;;;;4.28;3.88;;;;;;;0.67;97.25;93106.50;2123084;27;20031;-86
2021/04/18 03:13:23;;;;;;;4.63;4.18;;;;;;;0.63;97.49;93100.44;2117373;28;20156;-86
2021/04/18 03:14:24;;;;;;;4.13;3.83;;;;;;;0.63;97.51;93103.06;2117175;27;20088;-85
2021/04/18 03:15:28;;;;;;;3.95;3.65;;;;;;;0.55;97.18;93109.31;2115461;28;20055;-86
2021/04/18 03:16:28;;;;;;;4.20;3.90;;;;;;;0.60;97.50;93103.00;2096156;28;20036;-86
2021/04/18 03:17:30;;;;;;;4.20;3.90;;;;;;;0.55;97.60;93111.94;2085544;28;20053;-87
2021/04/18 03:18:31;;;;;;;4.43;4.13;;;;;;;0.48;98.23;93107.34;2094034;28;20059;-85
2021/04/18 03:19:33;;;;;;;4.25;3.95;;;;;;;0.48;98.17;93104.72;2095493;28;20020;-86
2021/04/18 03:20:34;;;;;;;4.47;4.18;;;;;;;0.46;97.91;93096.41;2101611;28;20032;-87
2021/04/18 03:21:36;;;;;;;4.82;4.43;;;;;;;0.48;98.51;93112.63;2102406;28;20020;-86
2021/04/18 03:22:39;;;;;;;4.47;4.18;;;;;;;0.50;98.33;93107.00;2103405;28;20024;-86
2021/04/18 03:23:40;;;;;;;4.38;4.10;;;;;;;0.44;98.41;93111.00;2095335;28;20031;-86
2021/04/18 03:24:42;;;;;;;4.25;3.95;;;;;;;0.47;98.46;93115.56;2103222;28;20024;-86
2021/04/18 03:25:43;;;;;;;4.45;4.15;;;;;;;0.49;98.90;93114.13;2116819;27;20123;-86
2021/04/18 03:26:46;;;;;;;4.60;4.30;;;;;;;0.48;98.44;93111.81;2102859;28;20024;-86
2021/04/18 03:27:46;;;;;;;4.78;4.45;;;;;;;0.45;97.99;93112.56;2094408;28;20364;-86
2021/04/18 03:28:55;;;;;;;5.20;4.80;;;;;;;0.47;98.25;93112.94;2093700;28;20021;-86
2021/04/18 03:29:55;;;;;;;4.47;4.22;;;;;;;0.47;98.03;93110.31;2110941;28;20020;-86
2021/04/18 03:30:56;;;;;;;4.78;4.40;;;;;;;0.43;98.99;93117.38;2093560;28;20029;-86
2021/04/18 03:31:56;;;;;;;4.68;4.38;;;;;;;0.42;99.19;93110.63;2093482;28;20032;-86
2021/04/18 03:33:08;;;;;;;5.22;4.82;;;;;;;0.42;99.25;93114.00;2105443;28;20025;-86
2021/04/18 03:34:09;;;;;;;5.03;4.63;;;;;;;0.45;99.13;93120.44;2110485;28;20479;-85
2021/04/18 03:35:10;;;;;;;4.72;4.43;;;;;;;0.48;98.72;93117.09;2104116;28;20028;-86
2021/04/18 03:36:14;;;;;;;5.18;4.68;;;;;;;0.54;98.47;93114.94;2111543;28;20118;-86
2021/04/18 03:37:16;;;;;;;4.47;4.18;;;;;;;0.49;97.86;93114.13;2111808;28;20393;-87
2021/04/18 03:38:17;;;;;;;4.80;4.50;;;;;;;0.46;97.92;93119.31;2105757;28;20027;-88
2021/04/18 03:39:18;;;;;;;4.70;4.30;;;;;;;0.45;98.38;93118.56;2100079;28;20220;-87
2021/04/18 03:40:18;;;;;;;4.53;4.22;;;;;;;0.41;98.08;93117.75;2106041;28;20024;-87
2021/04/18 03:41:19;;;;;;;4.80;4.47;;;;;;;0.40;98.34;93116.22;2098461;28;20085;-86
2021/04/18 03:42:19;;;;;;;5.05;4.72;;;;;;;0.42;98.43;93106.13;2098895;28;20388;-87
2021/04/18 03:43:19;;;;;;;4.78;4.47;;;;;;;0.35;98.83;93113.13;2098365;28;20029;-88
2021/04/18 03:44:20;;;;;;;4.78;4.47;;;;;;;0.37;98.88;93111.66;2098346;28;20489;-86
2021/04/18 03:45:21;;;;;;;4.60;4.30;;;;;;;0.41;98.89;93111.72;2095512;28;20519;-86
2021/04/18 03:46:22;;;;;;;5.00;4.70;;;;;;;0.41;98.92;93112.50;2098712;28;20040;-86
2021/04/18 03:47:23;;;;;;;4.82;4.43;;;;;;;0.52;98.96;93117.16;2098281;28;20020;-86
2021/04/18 03:48:24;;;;;;;4.75;4.45;;;;;;;0.50;98.77;93105.13;2098479;28;20082;-87
2021/04/18 03:49:24;;;;;;;4.80;4.47;;;;;;;0.52;98.43;93111.88;2081790;28;20092;-86
2021/04/18 03:50:25;;;;;;;4.90;4.60;;;;;;;0.50;98.57;93110.38;2090230;28;20017;-87
2021/04/18 03:51:25;;;;;;;4.88;4.53;;;;;;;0.48;98.59;93106.56;2106633;28;20027;-87
2021/04/18 03:52:26;;;;;;;4.80;4.47;;;;;;;0.40;98.07;93110.22;2102149;28;20031;-87
2021/04/18 03:53:26;;;;;;;4.70;4.40;;;;;;;0.47;98.07;93110.31;2089997;28;20120;-86
2021/04/18 03:54:27;;;;;;;5.13;4.72;;;;;;;0.49;98.46;93110.75;2105988;28;20016;-87
2021/04/18 03:55:27;;;;;;;4.47;4.18;;;;;;;0.45;98.68;93113.31;2099529;28;20436;-86
2021/04/18 03:56:28;;;;;;;5.07;4.68;;;;;;;0.34;98.92;93109.72;2098418;28;20487;-87
2021/04/18 03:57:28;;;;;;;5.20;4.90;;;;;;;0.34;99.18;93109.72;2098340;28;20101;-87
2021/04/18 03:58:29;;;;;;;4.82;4.43;;;;;;;0.36;99.06;93109.41;2106664;28;20353;-87
2021/04/18 03:59:29;;;;;;;4.95;4.65;;;;;;;0.40;98.89;93110.97;2098302;28;20032;-87
2021/04/18 04:00:30;;;;;;;5.10;4.70;;;;;;;0.42;99.32;93108.75;2098072;28;20016;-86
2021/04/18 04:01:30;;;;;;;5.55;5.13;;;;;;;0.43;98.89;93110.25;2106438;28;20057;-87
2021/04/18 04:02:31;;;;;;;5.20;4.80;;;;;;;0.48;99.28;93107.34;2106685;28;20016;-87
2021/04/18 04:03:31;;;;;;;4.65;4.35;;;;;;;0.51;99.24;93105.88;2106730;28;20016;-86
2021/04/18 04:04:31;;;;;;;5.05;4.70;;;;;;;0.59;99.50;93104.13;2097918;28;20076;-86
2021/04/18 04:05:32;;;;;;;5.53;5.07;;;;;;;0.55;100.00;93105.94;2098237;28;20024;-85
2021/04/18 04:06:32;;;;;;;5.45;4.95;;;;;;;0.46;98.93;93106.94;2098174;28;20032;-86
2021/04/18 04:07:33;;;;;;;4.90;4.60;;;;;;;0.49;98.76;93106.25;2106404;28;20047;-87
2021/04/18 04:08:33;;;;;;;5.18;4.80;;;;;;;0.50;98.06;93118.25;2092971;28;20017;-86
2021/04/18 04:09:34;;;;;;;4.85;4.45;;;;;;;0.56;98.34;93107.44;2081729;28;20021;-86
2021/04/18 04:10:35;;;;;;;5.22;4.82;;;;;;;0.52;98.29;93109.25;2090189;28;20025;-87
2021/04/18 04:11:35;;;;;;;5.40;5.00;;;;;;;0.45;98.30;93110.69;2090077;28;20016;-86
2021/04/18 04:12:36;;;;;;;5.45;5.05;;;;;;;0.45;98.46;93109.91;2095264;28;20054;-87
2021/04/18 04:13:36;;;;;;;5.18;4.78;;;;;;;0.44;98.43;93114.44;2098306;28;20046;-86
2021/04/18 04:14:36;;;;;;;5.35;4.95;;;;;;;0.43;97.95;93109.50;2097988;28;20052;-87
2021/04/18 04:15:37;;;;;;;5.63;5.13;;;;;;;0.38;98.03;93115.81;2078900;28;20033;-87
2021/04/18 04:16:37;;;;;;;5.70;5.20;;;;;;;0.39;98.11;93117.31;2073551;28;20018;-87
2021/04/18 04:17:39;;;;;;;5.30;4.93;;;;;;;0.43;98.64;93109.50;2081715;28;20405;-86
2021/04/18 04:18:39;;;;;;;6.22;4.95;;;;;;;0.46;98.54;93112.19;2101947;28;20020;-86
2021/04/18 04:19:40;;;;;;;5.10;4.80;;;;;;;0.52;98.68;93110.00;2097935;28;20089;-86
2021/04/18 04:20:40;;;;;;;5.10;4.78;;;;;;;0.53;98.57;93116.81;2096118;28;20025;-86
2021/04/18 04:21:40;;;;;;;5.30;4.90;;;;;;;0.55;98.60;93116.44;2098158;28;20737;-87
2021/04/18 04:22:43;;;;;;;5.57;5.15;;;;;;;0.50;98.38;93113.00;2081443;28;20053;-87
2021/04/18 04:23:43;;;;;;;5.32;4.93;;;;;;;0.51;98.27;93111.13;2081763;28;20512;-86
2021/04/18 04:24:44;;;;;;;5.38;4.97;;;;;;;0.54;98.46;93114.94;2100502;28;20028;-86
2021/04/18 04:25:44;;;;;;;5.20;4.90;;;;;;;0.59;98.36;93112.00;2086734;28;20025;-86
2021/04/18 04:26:45;;;;;;;5.57;5.18;;;;;;;0.60;98.80;93113.53;2098174;28;20035;-86
2021/04/18 04:27:45;;;;;;;5.05;4.75;;;;;;;0.57;98.55;93119.47;2097070;28;20048;-86
2021/04/18 04:28:46;;;;;;;5.50;5.10;;;;;;;0.58;98.77;93119.16;2098018;28;20028;-86
2021/04/18 04:29:47;;;;;;;5.00;4.70;;;;;;;0.55;98.71;93117.22;2082288;28;20136;-87
2021/04/18 04:30:48;;;;;;;5.53;5.10;;;;;;;0.47;98.45;93121.59;2089953;28;20021;-86
2021/04/18 04:31:48;;;;;;;5.78;5.30;;;;;;;0.47;98.76;93112.94;2104271;28;20020;-86
2021/04/18 04:32:48;;;;;;;5.65;5.30;;;;;;;0.51;98.37;93121.66;2097907;28;20504;-87
2021/04/18 04:33:49;;;;;;;5.03;4.72;;;;;;;0.56;98.40;93113.47;2097825;28;20443;-87
2021/04/18 04:34:49;;;;;;;5.30;4.93;;;;;;;0.55;98.65;93117.22;2106310;28;20035;-87
2021/04/18 04:35:50;;;;;;;5.68;5.28;;;;;;;0.55;98.79;93116.44;2089535;28;20085;-87
2021/04/18 04:36:50;;;;;;;5.93;5.53;;;;;;;0.52;98.52;93123.16;2098018;28;20087;-87
2021/04/18 04:37:50;;;;;;;5.18;4.88;;;;;;;0.48;98.03;93112.63;2106148;28;20024;-87
2021/04/18 04:38:51;;;;;;;5.75;5.35;;;;;;;0.48;98.45;93124.97;2097951;28;20482;-88
2021/04/18 04:39:51;;;;;;;4.97;4.68;;;;;;;0.57;98.60;93116.84;2089869;28;20036;-88
2021/04/18 04:40:52;;;;;;;5.60;5.20;;;;;;;0.52;98.77;93120.53;2098083;28;20056;-87
2021/04/18 04:41:52;;;;;;;5.65;5.15;;;;;;;0.56;99.07;93128.47;2114848;28;20106;-86
2021/04/18 04:42:53;;;;;;;5.95;5.45;;;;;;;0.58;99.05;93119.16;2103334;28;20091;-87
2021/04/18 04:43:53;;;;;;;5.50;5.10;;;;;;;0.66;98.33;93122.63;2092241;28;20032;-85
2021/04/18 04:44:54;;;;;;;5.60;5.20;;;;;;;0.67;98.11;93118.91;2103109;28;20042;-88
2021/04/18 04:45:54;;;;;;;5.68;5.18;;;;;;;0.56;97.73;93120.59;2089303;28;20696;-87
2021/04/18 04:46:56;;;;;;;5.70;5.30;;;;;;;0.60;98.34;93116.91;2089589;28;20126;-87
2021/04/18 04:47:57;;;;;;;5.60;5.13;;;;;;;0.63;98.23;93121.47;2086404;28;20033;-88
2021/04/18 04:48:57;;;;;;;5.60;5.20;;;;;;;0.64;98.18;93124.84;2093084;28;20036;-88
2021/04/18 04:49:57;;;;;;;5.50;5.20;;;;;;;0.65;98.50;93119.25;2102601;28;20063;-87
2021/04/18 04:50:58;;;;;;;5.45;5.00;;;;;;;0.68;97.82;93123.81;2094029;28;20044;-88
2021/04/18 04:51:58;;;;;;;5.53;5.13;;;;;;;0.67;97.90;93129.44;2093089;28;20071;-88
2021/04/18 04:52:59;;;;;;;5.05;4.75;;;;;;;0.72;98.19;93122.00;2094323;28;20025;-87